sensor_id;sensor_type;location;lat;lon;timestamp;P1;durP1;ratioP1;P2;durP2;ratioP2
13252;SDS011;6693;54.370;10.132;2023-04-03T00:00:27;6.40;;;1.73;;
13252;SDS011;6693;54.370;10.132;2023-04-03T00:01:28;5.15;;;1.85;;
13252;SDS011;6693;54.370;10.132;2023-04-03T00:02:31;7.20;;;1.83;;
13252;SDS011;6693;54.370;10.132;2023-04-03T00:03:32;7.47;;;1.20;;
13252;SDS011;6693;54.370;10.132;2023-04-03T00:04:35;6.43;;;2.17;;
13252;SDS011;6693;54.370;10.132;2023-04-03T00:05:36;5.28;;;1.88;;
13252;SDS011;6693;54.370;10.132;2023-04-03T00:06:39;5.88;;;2.25;;
13252;SDS011;6693;54.370;10.132;2023-04-03T00:07:40;4.78;;;1.85;;
13252;SDS011;6693;54.370;10.132;2023-04-03T00:08:43;7.38;;;1.58;;
13252;SDS011;6693;54.370;10.132;2023-04-03T00:09:44;6.57;;;1.90;;
13252;SDS011;6693;54.370;10.132;2023-04-03T00:10:47;4.95;;;1.92;;
13252;SDS011;6693;54.370;10.132;2023-04-03T00:11:48;6.57;;;1.98;;
13252;SDS011;6693;54.370;10.132;2023-04-03T00:12:51;4.55;;;1.85;;
13252;SDS011;6693;54.370;10.132;2023-04-03T00:13:54;7.82;;;1.92;;
13252;SDS011;6693;54.370;10.132;2023-04-03T00:14:57;4.80;;;1.20;;
13252;SDS011;6693;54.370;10.132;2023-04-03T00:15:58;6.18;;;2.05;;
13252;SDS011;6693;54.370;10.132;2023-04-03T00:17:01;5.00;;;1.92;;
13252;SDS011;6693;54.370;10.132;2023-04-03T00:18:02;5.38;;;1.77;;
13252;SDS011;6693;54.370;10.132;2023-04-03T00:19:06;4.43;;;1.10;;
13252;SDS011;6693;54.370;10.132;2023-04-03T00:20:07;4.82;;;1.15;;
13252;SDS011;6693;54.370;10.132;2023-04-03T00:21:11;4.13;;;1.45;;
13252;SDS011;6693;54.370;10.132;2023-04-03T00:22:12;6.53;;;2.05;;
13252;SDS011;6693;54.370;10.132;2023-04-03T00:23:15;6.05;;;1.67;;
13252;SDS011;6693;54.370;10.132;2023-04-03T00:24:16;4.90;;;1.75;;
13252;SDS011;6693;54.370;10.132;2023-04-03T00:25:19;4.43;;;2.25;;
13252;SDS011;6693;54.370;10.132;2023-04-03T00:26:20;5.00;;;1.92;;
13252;SDS011;6693;54.370;10.132;2023-04-03T00:27:23;5.68;;;1.83;;
13252;SDS011;6693;54.370;10.132;2023-04-03T00:28:24;4.25;;;1.67;;
13252;SDS011;6693;54.370;10.132;2023-04-03T00:29:30;4.40;;;1.60;;
13252;SDS011;6693;54.370;10.132;2023-04-03T00:30:30;5.28;;;1.67;;
13252;SDS011;6693;54.370;10.132;2023-04-03T00:31:34;4.50;;;1.92;;
13252;SDS011;6693;54.370;10.132;2023-04-03T00:32:34;5.25;;;1.88;;
13252;SDS011;6693;54.370;10.132;2023-04-03T00:33:37;5.10;;;1.20;;
13252;SDS011;6693;54.370;10.132;2023-04-03T00:34:38;5.68;;;1.85;;
13252;SDS011;6693;54.370;10.132;2023-04-03T00:35:41;5.20;;;1.88;;
13252;SDS011;6693;54.370;10.132;2023-04-03T00:36:42;4.57;;;2.20;;
13252;SDS011;6693;54.370;10.132;2023-04-03T00:37:45;3.92;;;0.80;;
13252;SDS011;6693;54.370;10.132;2023-04-03T00:38:46;4.20;;;1.73;;
13252;SDS011;6693;54.370;10.132;2023-04-03T00:39:49;4.85;;;1.83;;
13252;SDS011;6693;54.370;10.132;2023-04-03T00:40:50;4.95;;;2.10;;
13252;SDS011;6693;54.370;10.132;2023-04-03T00:41:53;4.68;;;1.73;;
13252;SDS011;6693;54.370;10.132;2023-04-03T00:42:55;4.65;;;1.58;;
13252;SDS011;6693;54.370;10.132;2023-04-03T00:43:59;5.45;;;1.88;;
13252;SDS011;6693;54.370;10.132;2023-04-03T00:46:37;6.85;;;1.58;;
13252;SDS011;6693;54.370;10.132;2023-04-03T00:47:38;6.80;;;1.77;;
13252;SDS011;6693;54.370;10.132;2023-04-03T00:48:42;4.85;;;1.92;;
13252;SDS011;6693;54.370;10.132;2023-04-03T00:49:44;5.70;;;2.10;;
13252;SDS011;6693;54.370;10.132;2023-04-03T00:50:47;6.20;;;2.22;;
13252;SDS011;6693;54.370;10.132;2023-04-03T00:51:48;5.53;;;2.45;;
13252;SDS011;6693;54.370;10.132;2023-04-03T00:52:51;8.48;;;2.53;;
13252;SDS011;6693;54.370;10.132;2023-04-03T00:53:53;5.38;;;1.30;;
13252;SDS011;6693;54.370;10.132;2023-04-03T00:54:59;5.90;;;2.75;;
13252;SDS011;6693;54.370;10.132;2023-04-03T00:56:03;4.43;;;1.40;;
13252;SDS011;6693;54.370;10.132;2023-04-03T00:57:09;4.85;;;1.85;;
13252;SDS011;6693;54.370;10.132;2023-04-03T00:58:10;6.03;;;1.83;;
13252;SDS011;6693;54.370;10.132;2023-04-03T00:59:15;4.88;;;1.88;;
13252;SDS011;6693;54.370;10.132;2023-04-03T01:00:18;7.05;;;1.27;;
13252;SDS011;6693;54.370;10.132;2023-04-03T01:01:26;5.28;;;1.77;;
13252;SDS011;6693;54.370;10.132;2023-04-03T01:02:27;4.70;;;1.92;;
13252;SDS011;6693;54.370;10.132;2023-04-03T01:03:30;5.78;;;1.80;;
13252;SDS011;6693;54.370;10.132;2023-04-03T01:04:32;4.65;;;1.70;;
13252;SDS011;6693;54.370;10.132;2023-04-03T01:05:36;6.20;;;2.22;;
13252;SDS011;6693;54.370;10.132;2023-04-03T01:06:37;7.93;;;2.28;;
13252;SDS011;6693;54.370;10.132;2023-04-03T01:07:40;5.85;;;1.70;;
13252;SDS011;6693;54.370;10.132;2023-04-03T01:08:41;4.90;;;1.88;;
13252;SDS011;6693;54.370;10.132;2023-04-03T01:09:45;5.63;;;1.85;;
13252;SDS011;6693;54.370;10.132;2023-04-03T01:10:47;4.57;;;1.73;;
13252;SDS011;6693;54.370;10.132;2023-04-03T01:11:51;6.35;;;2.25;;
13252;SDS011;6693;54.370;10.132;2023-04-03T01:12:52;5.22;;;2.25;;
13252;SDS011;6693;54.370;10.132;2023-04-03T01:13:55;6.03;;;2.00;;
13252;SDS011;6693;54.370;10.132;2023-04-03T01:14:56;5.63;;;1.75;;
13252;SDS011;6693;54.370;10.132;2023-04-03T01:16:00;6.00;;;1.77;;
13252;SDS011;6693;54.370;10.132;2023-04-03T01:18:36;5.82;;;1.98;;
13252;SDS011;6693;54.370;10.132;2023-04-03T01:19:38;6.40;;;1.98;;
13252;SDS011;6693;54.370;10.132;2023-04-03T01:20:50;4.80;;;1.75;;
13252;SDS011;6693;54.370;10.132;2023-04-03T01:23:25;4.75;;;1.85;;
13252;SDS011;6693;54.370;10.132;2023-04-03T01:24:32;4.63;;;1.60;;
13252;SDS011;6693;54.370;10.132;2023-04-03T01:25:39;5.95;;;1.80;;
13252;SDS011;6693;54.370;10.132;2023-04-03T01:26:40;5.97;;;2.60;;
13252;SDS011;6693;54.370;10.132;2023-04-03T01:27:44;5.63;;;2.63;;
13252;SDS011;6693;54.370;10.132;2023-04-03T01:28:44;5.55;;;2.90;;
13252;SDS011;6693;54.370;10.132;2023-04-03T01:29:48;5.47;;;2.40;;
13252;SDS011;6693;54.370;10.132;2023-04-03T01:30:49;4.75;;;1.35;;
13252;SDS011;6693;54.370;10.132;2023-04-03T01:31:57;6.38;;;2.13;;
13252;SDS011;6693;54.370;10.132;2023-04-03T01:32:58;5.32;;;2.28;;
13252;SDS011;6693;54.370;10.132;2023-04-03T01:34:02;5.70;;;1.20;;
13252;SDS011;6693;54.370;10.132;2023-04-03T01:35:03;6.18;;;2.28;;
13252;SDS011;6693;54.370;10.132;2023-04-03T01:36:07;5.88;;;2.10;;
13252;SDS011;6693;54.370;10.132;2023-04-03T01:37:08;4.15;;;1.70;;
13252;SDS011;6693;54.370;10.132;2023-04-03T01:38:11;5.05;;;2.50;;
13252;SDS011;6693;54.370;10.132;2023-04-03T01:39:12;5.35;;;2.25;;
13252;SDS011;6693;54.370;10.132;2023-04-03T01:40:15;4.95;;;1.75;;
13252;SDS011;6693;54.370;10.132;2023-04-03T01:41:16;8.15;;;2.47;;
13252;SDS011;6693;54.370;10.132;2023-04-03T01:42:20;4.20;;;1.33;;
13252;SDS011;6693;54.370;10.132;2023-04-03T01:43:21;5.32;;;1.90;;
13252;SDS011;6693;54.370;10.132;2023-04-03T01:44:24;5.88;;;2.03;;
13252;SDS011;6693;54.370;10.132;2023-04-03T01:45:25;5.45;;;1.85;;
13252;SDS011;6693;54.370;10.132;2023-04-03T01:46:28;7.53;;;2.58;;
13252;SDS011;6693;54.370;10.132;2023-04-03T01:47:31;6.78;;;1.95;;
13252;SDS011;6693;54.370;10.132;2023-04-03T01:48:34;4.43;;;1.35;;
13252;SDS011;6693;54.370;10.132;2023-04-03T01:49:35;4.57;;;2.55;;
13252;SDS011;6693;54.370;10.132;2023-04-03T01:50:38;5.38;;;1.77;;
13252;SDS011;6693;54.370;10.132;2023-04-03T01:51:39;7.07;;;2.17;;
13252;SDS011;6693;54.370;10.132;2023-04-03T01:52:42;4.00;;;1.58;;
13252;SDS011;6693;54.370;10.132;2023-04-03T01:53:43;4.40;;;1.08;;
13252;SDS011;6693;54.370;10.132;2023-04-03T01:54:46;4.85;;;1.33;;
13252;SDS011;6693;54.370;10.132;2023-04-03T01:55:47;5.43;;;2.10;;
13252;SDS011;6693;54.370;10.132;2023-04-03T01:56:51;4.55;;;1.95;;
13252;SDS011;6693;54.370;10.132;2023-04-03T01:57:51;4.88;;;1.95;;
13252;SDS011;6693;54.370;10.132;2023-04-03T01:58:55;6.20;;;1.90;;
13252;SDS011;6693;54.370;10.132;2023-04-03T01:59:55;6.25;;;2.05;;
13252;SDS011;6693;54.370;10.132;2023-04-03T02:00:58;5.50;;;2.15;;
13252;SDS011;6693;54.370;10.132;2023-04-03T02:01:59;5.18;;;1.88;;
13252;SDS011;6693;54.370;10.132;2023-04-03T02:03:05;5.28;;;2.20;;
13252;SDS011;6693;54.370;10.132;2023-04-03T02:04:06;4.85;;;2.05;;
13252;SDS011;6693;54.370;10.132;2023-04-03T02:05:10;5.88;;;1.85;;
13252;SDS011;6693;54.370;10.132;2023-04-03T02:06:11;5.68;;;2.17;;
13252;SDS011;6693;54.370;10.132;2023-04-03T02:07:14;6.82;;;2.58;;
13252;SDS011;6693;54.370;10.132;2023-04-03T02:08:14;5.18;;;2.42;;
13252;SDS011;6693;54.370;10.132;2023-04-03T02:09:18;5.57;;;2.20;;
13252;SDS011;6693;54.370;10.132;2023-04-03T02:10:18;4.90;;;1.90;;
13252;SDS011;6693;54.370;10.132;2023-04-03T02:11:22;5.40;;;2.08;;
13252;SDS011;6693;54.370;10.132;2023-04-03T02:12:22;6.15;;;2.05;;
13252;SDS011;6693;54.370;10.132;2023-04-03T02:13:26;5.65;;;2.05;;
13252;SDS011;6693;54.370;10.132;2023-04-03T02:14:26;5.28;;;2.30;;
13252;SDS011;6693;54.370;10.132;2023-04-03T02:15:30;5.30;;;1.20;;
13252;SDS011;6693;54.370;10.132;2023-04-03T02:16:30;5.93;;;1.85;;
13252;SDS011;6693;54.370;10.132;2023-04-03T02:17:34;3.78;;;1.55;;
13252;SDS011;6693;54.370;10.132;2023-04-03T02:18:38;5.70;;;1.83;;
13252;SDS011;6693;54.370;10.132;2023-04-03T02:19:41;7.05;;;1.75;;
13252;SDS011;6693;54.370;10.132;2023-04-03T02:20:42;6.50;;;1.90;;
13252;SDS011;6693;54.370;10.132;2023-04-03T02:21:45;5.97;;;2.10;;
13252;SDS011;6693;54.370;10.132;2023-04-03T02:22:46;5.03;;;2.17;;
13252;SDS011;6693;54.370;10.132;2023-04-03T02:23:49;4.90;;;1.10;;
13252;SDS011;6693;54.370;10.132;2023-04-03T02:24:50;5.05;;;1.98;;
13252;SDS011;6693;54.370;10.132;2023-04-03T02:25:53;5.65;;;2.05;;
13252;SDS011;6693;54.370;10.132;2023-04-03T02:27:02;5.55;;;1.30;;
13252;SDS011;6693;54.370;10.132;2023-04-03T02:28:05;5.57;;;1.92;;
13252;SDS011;6693;54.370;10.132;2023-04-03T02:29:05;7.70;;;1.83;;
13252;SDS011;6693;54.370;10.132;2023-04-03T02:30:09;6.25;;;2.03;;
13252;SDS011;6693;54.370;10.132;2023-04-03T02:31:10;6.03;;;1.90;;
13252;SDS011;6693;54.370;10.132;2023-04-03T02:32:14;4.43;;;1.88;;
13252;SDS011;6693;54.370;10.132;2023-04-03T02:33:15;5.93;;;1.98;;
13252;SDS011;6693;54.370;10.132;2023-04-03T02:34:20;7.25;;;3.08;;
13252;SDS011;6693;54.370;10.132;2023-04-03T02:35:21;7.07;;;3.75;;
13252;SDS011;6693;54.370;10.132;2023-04-03T02:36:24;6.13;;;2.85;;
13252;SDS011;6693;54.370;10.132;2023-04-03T02:37:25;6.00;;;2.50;;
13252;SDS011;6693;54.370;10.132;2023-04-03T02:38:28;6.10;;;2.42;;
13252;SDS011;6693;54.370;10.132;2023-04-03T02:39:29;5.43;;;2.05;;
13252;SDS011;6693;54.370;10.132;2023-04-03T02:40:32;5.53;;;2.50;;
13252;SDS011;6693;54.370;10.132;2023-04-03T02:41:33;5.75;;;2.20;;
13252;SDS011;6693;54.370;10.132;2023-04-03T02:42:36;5.80;;;2.78;;
13252;SDS011;6693;54.370;10.132;2023-04-03T02:43:37;5.03;;;2.15;;
13252;SDS011;6693;54.370;10.132;2023-04-03T02:44:41;5.47;;;2.13;;
13252;SDS011;6693;54.370;10.132;2023-04-03T02:45:42;4.70;;;1.95;;
13252;SDS011;6693;54.370;10.132;2023-04-03T02:46:45;5.70;;;2.00;;
13252;SDS011;6693;54.370;10.132;2023-04-03T02:47:45;4.50;;;1.80;;
13252;SDS011;6693;54.370;10.132;2023-04-03T02:48:49;6.07;;;2.17;;
13252;SDS011;6693;54.370;10.132;2023-04-03T02:49:52;5.20;;;2.55;;
13252;SDS011;6693;54.370;10.132;2023-04-03T02:50:55;6.22;;;2.13;;
13252;SDS011;6693;54.370;10.132;2023-04-03T02:51:56;5.07;;;2.00;;
13252;SDS011;6693;54.370;10.132;2023-04-03T02:52:59;6.38;;;2.33;;
13252;SDS011;6693;54.370;10.132;2023-04-03T02:53:59;8.38;;;2.22;;
13252;SDS011;6693;54.370;10.132;2023-04-03T02:55:03;4.90;;;2.22;;
13252;SDS011;6693;54.370;10.132;2023-04-03T02:56:05;6.35;;;2.50;;
13252;SDS011;6693;54.370;10.132;2023-04-03T02:57:08;6.68;;;2.20;;
13252;SDS011;6693;54.370;10.132;2023-04-03T02:58:09;6.63;;;2.55;;
13252;SDS011;6693;54.370;10.132;2023-04-03T02:59:12;7.32;;;2.50;;
13252;SDS011;6693;54.370;10.132;2023-04-03T03:00:13;4.82;;;1.92;;
13252;SDS011;6693;54.370;10.132;2023-04-03T03:01:17;6.30;;;2.25;;
13252;SDS011;6693;54.370;10.132;2023-04-03T03:02:17;5.25;;;2.35;;
13252;SDS011;6693;54.370;10.132;2023-04-03T03:03:20;5.47;;;2.28;;
13252;SDS011;6693;54.370;10.132;2023-04-03T03:04:21;5.10;;;2.00;;
13252;SDS011;6693;54.370;10.132;2023-04-03T03:05:27;5.47;;;2.60;;
13252;SDS011;6693;54.370;10.132;2023-04-03T03:06:28;5.93;;;2.42;;
13252;SDS011;6693;54.370;10.132;2023-04-03T03:07:31;5.65;;;2.10;;
13252;SDS011;6693;54.370;10.132;2023-04-03T03:08:32;7.25;;;3.28;;
13252;SDS011;6693;54.370;10.132;2023-04-03T03:09:35;5.97;;;2.50;;
13252;SDS011;6693;54.370;10.132;2023-04-03T03:10:36;5.43;;;2.35;;
13252;SDS011;6693;54.370;10.132;2023-04-03T03:11:40;6.05;;;2.22;;
13252;SDS011;6693;54.370;10.132;2023-04-03T03:12:41;6.35;;;2.40;;
13252;SDS011;6693;54.370;10.132;2023-04-03T03:13:44;5.00;;;2.22;;
13252;SDS011;6693;54.370;10.132;2023-04-03T03:14:45;5.60;;;2.30;;
13252;SDS011;6693;54.370;10.132;2023-04-03T03:15:48;5.15;;;2.47;;
13252;SDS011;6693;54.370;10.132;2023-04-03T03:16:49;7.85;;;2.25;;
13252;SDS011;6693;54.370;10.132;2023-04-03T03:17:52;5.05;;;2.00;;
13252;SDS011;6693;54.370;10.132;2023-04-03T03:18:52;5.38;;;2.30;;
13252;SDS011;6693;54.370;10.132;2023-04-03T03:19:56;5.82;;;2.63;;
13252;SDS011;6693;54.370;10.132;2023-04-03T03:20:59;6.28;;;2.63;;
13252;SDS011;6693;54.370;10.132;2023-04-03T03:22:03;6.32;;;2.70;;
13252;SDS011;6693;54.370;10.132;2023-04-03T03:23:04;6.32;;;2.15;;
13252;SDS011;6693;54.370;10.132;2023-04-03T03:24:07;6.35;;;2.38;;
13252;SDS011;6693;54.370;10.132;2023-04-03T03:25:08;6.00;;;2.50;;
13252;SDS011;6693;54.370;10.132;2023-04-03T03:26:11;5.25;;;1.95;;
13252;SDS011;6693;54.370;10.132;2023-04-03T03:27:12;4.78;;;2.22;;
13252;SDS011;6693;54.370;10.132;2023-04-03T03:28:16;6.28;;;2.50;;
13252;SDS011;6693;54.370;10.132;2023-04-03T03:29:16;6.32;;;2.28;;
13252;SDS011;6693;54.370;10.132;2023-04-03T03:30:19;5.75;;;2.47;;
13252;SDS011;6693;54.370;10.132;2023-04-03T03:31:20;6.40;;;2.65;;
13252;SDS011;6693;54.370;10.132;2023-04-03T03:32:24;5.75;;;2.25;;
13252;SDS011;6693;54.370;10.132;2023-04-03T03:33:24;7.05;;;2.38;;
13252;SDS011;6693;54.370;10.132;2023-04-03T03:34:28;6.15;;;2.10;;
13252;SDS011;6693;54.370;10.132;2023-04-03T03:35:29;5.82;;;1.58;;
13252;SDS011;6693;54.370;10.132;2023-04-03T03:36:35;6.85;;;2.45;;
13252;SDS011;6693;54.370;10.132;2023-04-03T03:37:38;5.80;;;2.53;;
13252;SDS011;6693;54.370;10.132;2023-04-03T03:38:38;4.97;;;2.45;;
13252;SDS011;6693;54.370;10.132;2023-04-03T03:39:42;5.97;;;2.33;;
13252;SDS011;6693;54.370;10.132;2023-04-03T03:40:42;5.18;;;2.00;;
13252;SDS011;6693;54.370;10.132;2023-04-03T03:41:46;5.78;;;2.30;;
13252;SDS011;6693;54.370;10.132;2023-04-03T03:42:46;6.80;;;3.63;;
13252;SDS011;6693;54.370;10.132;2023-04-03T03:43:50;5.82;;;2.40;;
13252;SDS011;6693;54.370;10.132;2023-04-03T03:44:50;6.32;;;2.90;;
13252;SDS011;6693;54.370;10.132;2023-04-03T03:45:54;5.63;;;2.50;;
13252;SDS011;6693;54.370;10.132;2023-04-03T03:46:55;7.22;;;2.92;;
13252;SDS011;6693;54.370;10.132;2023-04-03T03:47:58;6.25;;;2.80;;
13252;SDS011;6693;54.370;10.132;2023-04-03T03:48:59;6.05;;;1.70;;
13252;SDS011;6693;54.370;10.132;2023-04-03T03:50:03;7.25;;;2.90;;
13252;SDS011;6693;54.370;10.132;2023-04-03T03:52:10;6.40;;;2.80;;
13252;SDS011;6693;54.370;10.132;2023-04-03T03:53:11;5.78;;;1.77;;
13252;SDS011;6693;54.370;10.132;2023-04-03T03:54:14;5.72;;;2.63;;
13252;SDS011;6693;54.370;10.132;2023-04-03T03:55:15;5.97;;;2.80;;
13252;SDS011;6693;54.370;10.132;2023-04-03T03:56:21;5.97;;;2.63;;
13252;SDS011;6693;54.370;10.132;2023-04-03T03:57:21;5.88;;;2.60;;
13252;SDS011;6693;54.370;10.132;2023-04-03T03:58:26;6.82;;;2.63;;
13252;SDS011;6693;54.370;10.132;2023-04-03T03:59:27;5.70;;;2.33;;
13252;SDS011;6693;54.370;10.132;2023-04-03T04:00:30;5.13;;;2.10;;
13252;SDS011;6693;54.370;10.132;2023-04-03T04:01:31;6.80;;;1.95;;
13252;SDS011;6693;54.370;10.132;2023-04-03T04:02:34;5.75;;;2.67;;
13252;SDS011;6693;54.370;10.132;2023-04-03T04:03:35;6.75;;;2.35;;
13252;SDS011;6693;54.370;10.132;2023-04-03T04:04:38;5.70;;;2.67;;
13252;SDS011;6693;54.370;10.132;2023-04-03T04:05:38;5.93;;;3.03;;
13252;SDS011;6693;54.370;10.132;2023-04-03T04:06:42;10.25;;;2.30;;
13252;SDS011;6693;54.370;10.132;2023-04-03T04:07:45;6.70;;;2.50;;
13252;SDS011;6693;54.370;10.132;2023-04-03T04:08:48;8.27;;;3.58;;
13252;SDS011;6693;54.370;10.132;2023-04-03T04:09:49;14.63;;;9.93;;
13252;SDS011;6693;54.370;10.132;2023-04-03T04:10:53;8.05;;;4.45;;
13252;SDS011;6693;54.370;10.132;2023-04-03T04:11:53;8.75;;;5.15;;
13252;SDS011;6693;54.370;10.132;2023-04-03T04:12:57;6.80;;;3.17;;
13252;SDS011;6693;54.370;10.132;2023-04-03T04:13:57;10.25;;;3.90;;
13252;SDS011;6693;54.370;10.132;2023-04-03T04:15:00;9.40;;;5.03;;
13252;SDS011;6693;54.370;10.132;2023-04-03T04:16:01;8.27;;;3.90;;
13252;SDS011;6693;54.370;10.132;2023-04-03T04:17:04;8.45;;;3.47;;
13252;SDS011;6693;54.370;10.132;2023-04-03T04:18:05;7.75;;;2.70;;
13252;SDS011;6693;54.370;10.132;2023-04-03T04:19:08;6.75;;;3.08;;
13252;SDS011;6693;54.370;10.132;2023-04-03T04:20:10;7.38;;;2.08;;
13252;SDS011;6693;54.370;10.132;2023-04-03T04:21:13;7.22;;;3.78;;
13252;SDS011;6693;54.370;10.132;2023-04-03T04:22:14;7.20;;;3.30;;
13252;SDS011;6693;54.370;10.132;2023-04-03T04:23:20;6.90;;;3.28;;
13252;SDS011;6693;54.370;10.132;2023-04-03T04:24:20;6.40;;;3.25;;
13252;SDS011;6693;54.370;10.132;2023-04-03T04:25:24;6.78;;;2.92;;
13252;SDS011;6693;54.370;10.132;2023-04-03T04:26:25;6.95;;;4.03;;
13252;SDS011;6693;54.370;10.132;2023-04-03T04:27:28;8.15;;;3.67;;
13252;SDS011;6693;54.370;10.132;2023-04-03T04:28:29;8.80;;;5.10;;
13252;SDS011;6693;54.370;10.132;2023-04-03T04:29:32;8.00;;;4.55;;
13252;SDS011;6693;54.370;10.132;2023-04-03T04:30:35;9.27;;;4.90;;
13252;SDS011;6693;54.370;10.132;2023-04-03T04:31:38;10.38;;;5.47;;
13252;SDS011;6693;54.370;10.132;2023-04-03T04:32:39;10.52;;;5.68;;
13252;SDS011;6693;54.370;10.132;2023-04-03T04:33:42;13.40;;;7.95;;
13252;SDS011;6693;54.370;10.132;2023-04-03T04:34:45;16.52;;;9.55;;
13252;SDS011;6693;54.370;10.132;2023-04-03T04:35:47;14.93;;;7.93;;
13252;SDS011;6693;54.370;10.132;2023-04-03T04:36:51;11.40;;;6.45;;
13252;SDS011;6693;54.370;10.132;2023-04-03T04:37:52;10.23;;;6.68;;
13252;SDS011;6693;54.370;10.132;2023-04-03T04:38:58;8.90;;;5.40;;
13252;SDS011;6693;54.370;10.132;2023-04-03T04:39:58;8.60;;;3.58;;
13252;SDS011;6693;54.370;10.132;2023-04-03T04:41:02;9.15;;;5.00;;
13252;SDS011;6693;54.370;10.132;2023-04-03T04:42:03;8.15;;;3.80;;
13252;SDS011;6693;54.370;10.132;2023-04-03T04:43:07;7.13;;;3.33;;
13252;SDS011;6693;54.370;10.132;2023-04-03T04:44:07;6.80;;;3.95;;
13252;SDS011;6693;54.370;10.132;2023-04-03T04:45:11;6.68;;;3.38;;
13252;SDS011;6693;54.370;10.132;2023-04-03T04:46:11;7.25;;;3.17;;
13252;SDS011;6693;54.370;10.132;2023-04-03T04:47:14;6.82;;;3.47;;
13252;SDS011;6693;54.370;10.132;2023-04-03T04:48:15;8.75;;;4.55;;
13252;SDS011;6693;54.370;10.132;2023-04-03T04:49:19;7.85;;;3.78;;
13252;SDS011;6693;54.370;10.132;2023-04-03T04:50:20;7.53;;;3.78;;
13252;SDS011;6693;54.370;10.132;2023-04-03T04:51:23;7.20;;;3.60;;
13252;SDS011;6693;54.370;10.132;2023-04-03T04:52:24;8.40;;;3.95;;
13252;SDS011;6693;54.370;10.132;2023-04-03T04:53:27;6.65;;;3.95;;
13252;SDS011;6693;54.370;10.132;2023-04-03T04:54:30;7.53;;;3.70;;
13252;SDS011;6693;54.370;10.132;2023-04-03T04:55:33;5.93;;;3.53;;
13252;SDS011;6693;54.370;10.132;2023-04-03T04:56:34;7.18;;;3.75;;
13252;SDS011;6693;54.370;10.132;2023-04-03T04:57:37;7.28;;;2.67;;
13252;SDS011;6693;54.370;10.132;2023-04-03T04:58:38;7.20;;;3.65;;
13252;SDS011;6693;54.370;10.132;2023-04-03T04:59:41;7.53;;;3.90;;
13252;SDS011;6693;54.370;10.132;2023-04-03T05:00:42;9.32;;;4.60;;
13252;SDS011;6693;54.370;10.132;2023-04-03T05:01:45;8.25;;;3.08;;
13252;SDS011;6693;54.370;10.132;2023-04-03T05:02:46;8.88;;;3.92;;
13252;SDS011;6693;54.370;10.132;2023-04-03T05:03:49;7.85;;;3.13;;
13252;SDS011;6693;54.370;10.132;2023-04-03T05:04:50;8.68;;;2.90;;
13252;SDS011;6693;54.370;10.132;2023-04-03T05:05:53;5.55;;;2.95;;
13252;SDS011;6693;54.370;10.132;2023-04-03T05:06:54;7.45;;;2.95;;
13252;SDS011;6693;54.370;10.132;2023-04-03T05:07:57;6.13;;;2.90;;
13252;SDS011;6693;54.370;10.132;2023-04-03T05:08:58;6.00;;;3.05;;
13252;SDS011;6693;54.370;10.132;2023-04-03T05:10:04;5.13;;;2.60;;
13252;SDS011;6693;54.370;10.132;2023-04-03T05:11:08;7.43;;;3.47;;
13252;SDS011;6693;54.370;10.132;2023-04-03T05:12:09;5.57;;;2.83;;
13252;SDS011;6693;54.370;10.132;2023-04-03T05:13:12;6.15;;;3.08;;
13252;SDS011;6693;54.370;10.132;2023-04-03T05:14:12;6.78;;;3.28;;
13252;SDS011;6693;54.370;10.132;2023-04-03T05:15:16;7.55;;;3.20;;
13252;SDS011;6693;54.370;10.132;2023-04-03T05:16:17;5.85;;;2.20;;
13252;SDS011;6693;54.370;10.132;2023-04-03T05:17:20;7.00;;;3.17;;
13252;SDS011;6693;54.370;10.132;2023-04-03T05:18:20;7.75;;;3.65;;
13252;SDS011;6693;54.370;10.132;2023-04-03T05:19:24;7.63;;;3.83;;
13252;SDS011;6693;54.370;10.132;2023-04-03T05:20:25;6.75;;;3.28;;
13252;SDS011;6693;54.370;10.132;2023-04-03T05:21:28;8.18;;;3.30;;
13252;SDS011;6693;54.370;10.132;2023-04-03T05:22:32;7.68;;;3.72;;
13252;SDS011;6693;54.370;10.132;2023-04-03T05:23:35;7.40;;;3.50;;
13252;SDS011;6693;54.370;10.132;2023-04-03T05:24:36;7.07;;;2.67;;
13252;SDS011;6693;54.370;10.132;2023-04-03T05:25:42;9.10;;;4.53;;
13252;SDS011;6693;54.370;10.132;2023-04-03T05:26:44;7.22;;;5.15;;
13252;SDS011;6693;54.370;10.132;2023-04-03T05:27:47;6.72;;;3.03;;
13252;SDS011;6693;54.370;10.132;2023-04-03T05:28:47;7.97;;;4.30;;
13252;SDS011;6693;54.370;10.132;2023-04-03T05:29:52;8.73;;;4.88;;
13252;SDS011;6693;54.370;10.132;2023-04-03T05:30:53;8.52;;;4.25;;
13252;SDS011;6693;54.370;10.132;2023-04-03T05:31:57;11.15;;;6.38;;
13252;SDS011;6693;54.370;10.132;2023-04-03T05:32:58;10.60;;;7.05;;
13252;SDS011;6693;54.370;10.132;2023-04-03T05:34:01;10.05;;;5.53;;
13252;SDS011;6693;54.370;10.132;2023-04-03T05:35:02;9.55;;;5.47;;
13252;SDS011;6693;54.370;10.132;2023-04-03T05:36:07;10.32;;;7.85;;
13252;SDS011;6693;54.370;10.132;2023-04-03T05:37:08;11.82;;;8.55;;
13252;SDS011;6693;54.370;10.132;2023-04-03T05:38:11;11.90;;;6.03;;
13252;SDS011;6693;54.370;10.132;2023-04-03T05:39:12;12.27;;;5.10;;
13252;SDS011;6693;54.370;10.132;2023-04-03T05:40:16;9.20;;;4.78;;
13252;SDS011;6693;54.370;10.132;2023-04-03T05:41:19;8.77;;;4.88;;
13252;SDS011;6693;54.370;10.132;2023-04-03T05:42:23;11.80;;;4.45;;
13252;SDS011;6693;54.370;10.132;2023-04-03T05:43:23;8.00;;;4.78;;
13252;SDS011;6693;54.370;10.132;2023-04-03T05:44:27;11.30;;;4.85;;
13252;SDS011;6693;54.370;10.132;2023-04-03T05:45:27;8.70;;;4.78;;
13252;SDS011;6693;54.370;10.132;2023-04-03T05:46:31;7.88;;;4.93;;
13252;SDS011;6693;54.370;10.132;2023-04-03T05:47:31;8.55;;;4.38;;
13252;SDS011;6693;54.370;10.132;2023-04-03T05:48:34;10.13;;;5.53;;
13252;SDS011;6693;54.370;10.132;2023-04-03T05:49:35;10.65;;;5.25;;
13252;SDS011;6693;54.370;10.132;2023-04-03T05:50:40;11.25;;;5.15;;
13252;SDS011;6693;54.370;10.132;2023-04-03T05:51:42;10.65;;;5.25;;
13252;SDS011;6693;54.370;10.132;2023-04-03T05:52:45;9.82;;;4.75;;
13252;SDS011;6693;54.370;10.132;2023-04-03T05:53:47;11.48;;;5.50;;
13252;SDS011;6693;54.370;10.132;2023-04-03T05:54:51;9.80;;;5.78;;
13252;SDS011;6693;54.370;10.132;2023-04-03T05:55:51;10.05;;;5.38;;
13252;SDS011;6693;54.370;10.132;2023-04-03T05:56:57;8.10;;;4.93;;
13252;SDS011;6693;54.370;10.132;2023-04-03T05:57:58;8.13;;;3.72;;
13252;SDS011;6693;54.370;10.132;2023-04-03T05:59:01;12.73;;;5.63;;
13252;SDS011;6693;54.370;10.132;2023-04-03T06:00:03;8.52;;;5.32;;
13252;SDS011;6693;54.370;10.132;2023-04-03T06:01:07;9.80;;;5.15;;
13252;SDS011;6693;54.370;10.132;2023-04-03T06:02:09;10.73;;;5.30;;
13252;SDS011;6693;54.370;10.132;2023-04-03T06:03:13;9.48;;;5.25;;
13252;SDS011;6693;54.370;10.132;2023-04-03T06:04:14;11.10;;;5.43;;
13252;SDS011;6693;54.370;10.132;2023-04-03T06:05:19;10.57;;;5.97;;
13252;SDS011;6693;54.370;10.132;2023-04-03T06:06:19;9.00;;;5.38;;
13252;SDS011;6693;54.370;10.132;2023-04-03T06:07:23;10.48;;;5.90;;
13252;SDS011;6693;54.370;10.132;2023-04-03T06:08:28;9.88;;;5.53;;
13252;SDS011;6693;54.370;10.132;2023-04-03T06:09:29;9.20;;;5.60;;
13252;SDS011;6693;54.370;10.132;2023-04-03T06:10:33;9.68;;;5.47;;
13252;SDS011;6693;54.370;10.132;2023-04-03T06:11:36;10.27;;;5.20;;
13252;SDS011;6693;54.370;10.132;2023-04-03T06:12:39;15.88;;;5.38;;
13252;SDS011;6693;54.370;10.132;2023-04-03T06:13:43;11.93;;;5.60;;
13252;SDS011;6693;54.370;10.132;2023-04-03T06:14:43;8.27;;;5.40;;
13252;SDS011;6693;54.370;10.132;2023-04-03T06:15:47;10.25;;;5.30;;
13252;SDS011;6693;54.370;10.132;2023-04-03T06:16:48;10.18;;;5.10;;
13252;SDS011;6693;54.370;10.132;2023-04-03T06:17:51;8.95;;;4.53;;
13252;SDS011;6693;54.370;10.132;2023-04-03T06:18:52;11.20;;;5.70;;
13252;SDS011;6693;54.370;10.132;2023-04-03T06:19:56;7.75;;;4.70;;
13252;SDS011;6693;54.370;10.132;2023-04-03T06:20:58;11.23;;;5.63;;